Aérodrome :
LOGIN :

S'inscrire | Disclaimer

   EN    FR    IT 

 










Légende :    VFR   VFR Marginal   IFR   IFR Intensif   IFR Très Intensif
Visi : 
Plafond : 
>= 8 km
>= 3000ft
5 à 8 km
1000 à 3000 ft
1500m à 5 km
500 à 1000 ft
800 à 1500m
200 à 500 ft
< 800m
< 200 ft
Symboles :   Orages  Brouillard  Fortes neiges  Fortes précipitations  Vent > 20 kt
SIGMETs :   Divers  Orages  Givrage  Turbulence  Onde Orograph.  Cendres Volcan.






- Altitude de l'aérodrome : 74 ft
- Code IATA : MRS


LFML - Marseille / Marignane

DERNIER METAR :
  • 021930Z AUTO 15003KT CAVOK 08/04 Q1013 NOSIG

METARs EXPIRÉS :
  • 021900Z AUTO 19004KT CAVOK 10/05 Q1013 NOSIG
  • 021830Z AUTO 21006KT CAVOK 10/05 Q1013 NOSIG
  • 021800Z AUTO 22006KT CAVOK 11/05 Q1013 NOSIG
  • 021730Z AUTO 23007KT CAVOK 13/05 Q1013 NOSIG
  • 021700Z AUTO 22007KT CAVOK 13/05 Q1012 NOSIG

TAF TAF LFML
Valide du 02 à 15h jusqu'au 03 à 21h UTC


021400Z 0215/0321 26010KT CAVOK TX18/0314Z TN04/0304Z
TEMPO 0215/0217 20010KT SCT050
BECMG 0217/0219 VRB03KT
BECMG 0304/0306 33012KT
BECMG 0309/0311 26010KT
BECMG 0314/0315 18010KT
ATIS : +33 4 42 31 15 15



MET'MAP, la Météo Aéronautique d'un coup d'oeil ! - Copyright ORBIFLY Décembre 2007 - Disclaimer

ORBIFLY MET'MAP TEAM :

Programmation & Développement : Alexandra Zaïnal
Sur une idée originale de : Baudouin d'Aumeries
Assistance à la programmation : Marc-Olivier Méhu
Soutien technique & logistique : Manuel Goepfert

Contact : metmap@orbifly.com




SOURCES & CREDITS :

   NOAA